GER24M LEPA-LFPG
Flight info
| Callsign | GER24M |
|---|---|
| Flight time | 1h 6m |
| Altitude | 36000 |
| Route | GALAT N861 OLOXO DCT OKABI DCT TOU DCT POI/N0389F300 DCT PEPAX UT182 KEPER |
| Aircraft | A20N/M-SDE2E3FGHIRWXY/LB1 |
Departure
| Time | 2026-05-04 17:10 |
|---|---|
| Airport | Palma de Mallorca Airport (LEPA) |
Arrival
| Time | 2026-05-04 18:17 |
|---|---|
| Airport | Charles de Gaulle International Airport (LFPG) |
| Time | Latitude | Longitude | Altitude | Speed | Heading |
|---|---|---|---|---|---|
| 2026-05-04 16:26 | 39.55001 | 2.73440 | 26 ft | 0 kts | 167° |
| 2026-05-04 16:55 | 39.55034 | 2.73383 | 29 ft | 3 kts | 75° |
| 2026-05-04 16:55 | 39.55033 | 2.73380 | 28 ft | 0 kts | 75° |
| 2026-05-04 16:58 | 39.55105 | 2.73546 | 28 ft | 16 kts | 59° |
| 2026-05-04 16:58 | 39.55167 | 2.73678 | 25 ft | 16 kts | 63° |
| 2026-05-04 16:59 | 39.55260 | 2.73788 | 23 ft | 16 kts | 327° |
| 2026-05-04 17:00 | 39.55689 | 2.73579 | 18 ft | 18 kts | 59° |
| 2026-05-04 17:00 | 39.55903 | 2.74027 | 18 ft | 23 kts | 58° |
| 2026-05-04 17:01 | 39.56061 | 2.74364 | 17 ft | 12 kts | 58° |
| 2026-05-04 17:01 | 39.56152 | 2.74494 | 17 ft | 0 kts | 12° |
| 2026-05-04 17:05 | 39.56224 | 2.74436 | 18 ft | 12 kts | 288° |
| 2026-05-04 17:06 | 39.56205 | 2.74214 | 17 ft | 0 kts | 239° |
| 2026-05-04 17:10 | 39.55896 | 2.73571 | 17 ft | 103 kts | 239° |
| 2026-05-04 17:10 | 39.54374 | 2.70368 | 1223 ft | 144 kts | 236° |
| 2026-05-04 17:11 | 39.53845 | 2.69208 | 1672 ft | 154 kts | 238° |
| 2026-05-04 17:11 | 39.53279 | 2.67929 | 2005 ft | 173 kts | 239° |
| 2026-05-04 17:11 | 39.52013 | 2.64962 | 2949 ft | 204 kts | 241° |
| 2026-05-04 17:12 | 39.51329 | 2.63304 | 3382 ft | 210 kts | 242° |
| 2026-05-04 17:12 | 39.49993 | 2.59935 | 4269 ft | 210 kts | 243° |
| 2026-05-04 17:13 | 39.47991 | 2.54946 | 5654 ft | 209 kts | 226° |
| 2026-05-04 17:14 | 39.44947 | 2.50920 | 7274 ft | 213 kts | 249° |
| 2026-05-04 17:14 | 39.44769 | 2.49007 | 7827 ft | 220 kts | 274° |
| 2026-05-04 17:14 | 39.46535 | 2.45692 | 9051 ft | 245 kts | 324° |
| 2026-05-04 17:15 | 39.48068 | 2.44595 | 9689 ft | 258 kts | 325° |
| 2026-05-04 17:15 | 39.51345 | 2.42238 | 10866 ft | 284 kts | 325° |
| 2026-05-04 17:16 | 39.54943 | 2.39603 | 11978 ft | 312 kts | 325° |
| 2026-05-04 17:16 | 39.60956 | 2.35125 | 13643 ft | 351 kts | 325° |
| 2026-05-04 17:17 | 39.63091 | 2.33532 | 14182 ft | 356 kts | 325° |
| 2026-05-04 17:17 | 39.69572 | 2.28694 | 15743 ft | 364 kts | 325° |
| 2026-05-04 17:18 | 39.71770 | 2.27047 | 16304 ft | 366 kts | 325° |
| 2026-05-04 17:18 | 39.76220 | 2.23710 | 17436 ft | 372 kts | 326° |
| 2026-05-04 17:19 | 39.80739 | 2.20316 | 18647 ft | 378 kts | 326° |
| 2026-05-04 17:19 | 39.85332 | 2.16862 | 19790 ft | 384 kts | 326° |
| 2026-05-04 17:20 | 39.89966 | 2.13373 | 20964 ft | 390 kts | 326° |
| 2026-05-04 17:20 | 39.94690 | 2.09811 | 22201 ft | 394 kts | 325° |
| 2026-05-04 17:20 | 39.97068 | 2.08016 | 22839 ft | 396 kts | 325° |
| 2026-05-04 17:21 | 40.01841 | 2.04409 | 24043 ft | 397 kts | 325° |
| 2026-05-04 17:21 | 40.06647 | 2.00770 | 24991 ft | 403 kts | 325° |
| 2026-05-04 17:22 | 40.09079 | 1.98924 | 25422 ft | 406 kts | 325° |
| 2026-05-04 17:22 | 40.11496 | 1.97090 | 25863 ft | 409 kts | 325° |
| 2026-05-04 17:23 | 40.19613 | 1.93123 | 27224 ft | 426 kts | 345° |
| 2026-05-04 17:23 | 40.22542 | 1.92463 | 27702 ft | 427 kts | 346° |
| 2026-05-04 17:23 | 40.28403 | 1.91098 | 28657 ft | 428 kts | 345° |
| 2026-05-04 17:24 | 40.31332 | 1.90412 | 29161 ft | 427 kts | 345° |
| 2026-05-04 17:24 | 40.40053 | 1.88378 | 30578 ft | 425 kts | 345° |
| 2026-05-04 17:25 | 40.42957 | 1.87701 | 31018 ft | 423 kts | 345° |
| 2026-05-04 17:25 | 40.48730 | 1.86354 | 31926 ft | 419 kts | 345° |
| 2026-05-04 17:26 | 40.60222 | 1.83658 | 33128 ft | 425 kts | 344° |
| 2026-05-04 17:26 | 40.95307 | 1.75386 | 35823 ft | 439 kts | 344° |
| 2026-05-04 17:27 | 41.08049 | 1.72594 | 35936 ft | 463 kts | 348° |
| 2026-05-04 17:28 | 41.38422 | 1.67904 | 35937 ft | 467 kts | 348° |
| 2026-05-04 17:29 | 41.48163 | 1.68823 | 35939 ft | 481 kts | 9° |
| 2026-05-04 17:29 | 41.72292 | 1.69778 | 35935 ft | 465 kts | 343° |
| 2026-05-04 17:31 | 41.89493 | 1.66089 | 35968 ft | 473 kts | 352° |
| 2026-05-04 17:32 | 42.07087 | 1.65184 | 35938 ft | 474 kts | 353° |
| 2026-05-04 17:33 | 42.26561 | 1.64148 | 35965 ft | 475 kts | 353° |
| 2026-05-04 17:34 | 42.58066 | 1.62451 | 35964 ft | 475 kts | 353° |
| 2026-05-04 17:35 | 43.28989 | 1.58570 | 35964 ft | 485 kts | 354° |
| 2026-05-04 17:36 | 43.38436 | 1.57405 | 35937 ft | 478 kts | 340° |
| 2026-05-04 17:36 | 43.44406 | 1.53748 | 35899 ft | 465 kts | 320° |
| 2026-05-04 17:37 | 43.60378 | 1.38424 | 35944 ft | 466 kts | 320° |
| 2026-05-04 17:37 | 43.68237 | 1.31725 | 35952 ft | 475 kts | 331° |
| 2026-05-04 17:38 | 43.74556 | 1.28850 | 35958 ft | 482 kts | 343° |
| 2026-05-04 17:38 | 43.81044 | 1.26700 | 35962 ft | 483 kts | 342° |
| 2026-05-04 17:39 | 43.90843 | 1.23416 | 35968 ft | 483 kts | 342° |
| 2026-05-04 17:39 | 43.97382 | 1.21229 | 35976 ft | 483 kts | 342° |
| 2026-05-04 17:40 | 44.03878 | 1.19054 | 35954 ft | 484 kts | 342° |
| 2026-05-04 17:40 | 44.20136 | 1.13590 | 35944 ft | 484 kts | 342° |
| 2026-05-04 17:41 | 44.46322 | 1.04721 | 35956 ft | 484 kts | 342° |
| 2026-05-04 17:41 | 44.72502 | 0.95771 | 35899 ft | 485 kts | 342° |
| 2026-05-04 17:42 | 44.98708 | 0.86729 | 35909 ft | 484 kts | 342° |
| 2026-05-04 17:42 | 45.24690 | 0.77679 | 35918 ft | 484 kts | 342° |
| 2026-05-04 17:43 | 45.50805 | 0.68496 | 35945 ft | 483 kts | 343° |
| 2026-05-04 17:43 | 45.76842 | 0.59253 | 35965 ft | 481 kts | 343° |
| 2026-05-04 17:44 | 46.02832 | 0.49937 | 35936 ft | 481 kts | 343° |
| 2026-05-04 17:44 | 46.28628 | 0.40602 | 35947 ft | 481 kts | 343° |
| 2026-05-04 17:45 | 46.54641 | 0.31237 | 35948 ft | 483 kts | 349° |
| 2026-05-04 17:45 | 46.68012 | 0.32898 | 35911 ft | 487 kts | 11° |
| 2026-05-04 17:45 | 46.81306 | 0.36935 | 35911 ft | 487 kts | 11° |
| 2026-05-04 17:46 | 46.90092 | 0.39644 | 35908 ft | 487 kts | 11° |
| 2026-05-04 17:46 | 47.24392 | 0.41279 | 35913 ft | 481 kts | 348° |
| 2026-05-04 17:46 | 47.33031 | 0.39188 | 35915 ft | 481 kts | 348° |
| 2026-05-04 17:47 | 47.39635 | 0.37569 | 35457 ft | 482 kts | 348° |
| 2026-05-04 17:47 | 47.42945 | 0.36756 | 34981 ft | 483 kts | 348° |
| 2026-05-04 17:47 | 47.46269 | 0.35939 | 34447 ft | 484 kts | 348° |
| 2026-05-04 17:48 | 47.49554 | 0.35129 | 33887 ft | 486 kts | 348° |
| 2026-05-04 17:48 | 47.52889 | 0.34302 | 33223 ft | 487 kts | 348° |
| 2026-05-04 17:48 | 47.56231 | 0.33471 | 32576 ft | 487 kts | 348° |
| 2026-05-04 17:48 | 47.59570 | 0.32640 | 31943 ft | 487 kts | 349° |
| 2026-05-04 17:49 | 47.62912 | 0.31808 | 31332 ft | 488 kts | 349° |
| 2026-05-04 17:49 | 47.66259 | 0.30974 | 30718 ft | 488 kts | 349° |
| 2026-05-04 17:49 | 47.69611 | 0.30137 | 30121 ft | 488 kts | 349° |
| 2026-05-04 17:49 | 47.72949 | 0.29303 | 29407 ft | 485 kts | 349° |
| 2026-05-04 17:50 | 47.76282 | 0.28573 | 28670 ft | 482 kts | 355° |
| 2026-05-04 17:50 | 47.79573 | 0.28672 | 27972 ft | 479 kts | 7° |
| 2026-05-04 17:50 | 47.82800 | 0.29752 | 27285 ft | 473 kts | 20° |
| 2026-05-04 17:50 | 47.85771 | 0.31764 | 26603 ft | 467 kts | 32° |
| 2026-05-04 17:51 | 47.88408 | 0.34522 | 25950 ft | 461 kts | 40° |
| 2026-05-04 17:51 | 47.90895 | 0.37500 | 25304 ft | 456 kts | 40° |
| 2026-05-04 17:51 | 47.93375 | 0.40425 | 24673 ft | 452 kts | 39° |
| 2026-05-04 17:51 | 47.95873 | 0.43239 | 24058 ft | 448 kts | 37° |
| 2026-05-04 17:52 | 47.98386 | 0.45964 | 23440 ft | 444 kts | 37° |
| 2026-05-04 17:52 | 48.00891 | 0.48624 | 22724 ft | 440 kts | 36° |
| 2026-05-04 17:52 | 48.03347 | 0.51210 | 22031 ft | 436 kts | 36° |
| 2026-05-04 17:52 | 48.05816 | 0.53806 | 21354 ft | 432 kts | 36° |
| 2026-05-04 17:53 | 48.08261 | 0.56379 | 20759 ft | 428 kts | 36° |
| 2026-05-04 17:53 | 48.10682 | 0.58933 | 20160 ft | 424 kts | 36° |
| 2026-05-04 17:53 | 48.13082 | 0.61468 | 19551 ft | 420 kts | 36° |
| 2026-05-04 17:53 | 48.15459 | 0.63983 | 18980 ft | 416 kts | 36° |
| 2026-05-04 17:54 | 48.17802 | 0.66464 | 18458 ft | 410 kts | 36° |
| 2026-05-04 17:54 | 48.20108 | 0.68910 | 17876 ft | 400 kts | 36° |
| 2026-05-04 17:54 | 48.22310 | 0.71247 | 17306 ft | 387 kts | 36° |
| 2026-05-04 17:54 | 48.24471 | 0.73543 | 16812 ft | 374 kts | 36° |
| 2026-05-04 17:55 | 48.26550 | 0.75754 | 16408 ft | 359 kts | 36° |
| 2026-05-04 17:55 | 48.28548 | 0.77881 | 16040 ft | 345 kts | 36° |
| 2026-05-04 17:55 | 48.30469 | 0.79930 | 15690 ft | 332 kts | 36° |
| 2026-05-04 17:55 | 48.32328 | 0.81913 | 15318 ft | 325 kts | 36° |
| 2026-05-04 17:56 | 48.34069 | 0.84046 | 14927 ft | 322 kts | 47° |
| 2026-05-04 17:56 | 48.35430 | 0.86664 | 14625 ft | 315 kts | 60° |
| 2026-05-04 17:56 | 48.36449 | 0.89564 | 14335 ft | 314 kts | 64° |
| 2026-05-04 17:56 | 48.37454 | 0.92487 | 14009 ft | 314 kts | 64° |
| 2026-05-04 17:57 | 48.38462 | 0.95387 | 13668 ft | 311 kts | 64° |
| 2026-05-04 17:57 | 48.39449 | 0.98223 | 13303 ft | 308 kts | 64° |
| 2026-05-04 17:57 | 48.40436 | 1.01061 | 12926 ft | 305 kts | 64° |
| 2026-05-04 17:57 | 48.41412 | 1.03882 | 12567 ft | 304 kts | 64° |
| 2026-05-04 17:58 | 48.42383 | 1.06695 | 12207 ft | 302 kts | 64° |
| 2026-05-04 17:58 | 48.43345 | 1.09489 | 11837 ft | 299 kts | 64° |
| 2026-05-04 17:58 | 48.44296 | 1.12252 | 11493 ft | 295 kts | 64° |
| 2026-05-04 17:58 | 48.45235 | 1.14987 | 11195 ft | 293 kts | 64° |
| 2026-05-04 17:59 | 48.46175 | 1.17726 | 10949 ft | 294 kts | 64° |
| 2026-05-04 17:59 | 48.47110 | 1.20450 | 10697 ft | 291 kts | 64° |
| 2026-05-04 17:59 | 48.48957 | 1.25843 | 10226 ft | 288 kts | 64° |
| 2026-05-04 18:00 | 48.49861 | 1.28486 | 10013 ft | 286 kts | 64° |
| 2026-05-04 18:00 | 48.50771 | 1.31149 | 9963 ft | 285 kts | 64° |
| 2026-05-04 18:00 | 48.51683 | 1.33820 | 9955 ft | 287 kts | 64° |
| 2026-05-04 18:00 | 48.52290 | 1.35593 | 9953 ft | 288 kts | 63° |
| 2026-05-04 18:01 | 48.53525 | 1.39185 | 9886 ft | 287 kts | 63° |
| 2026-05-04 18:01 | 48.54439 | 1.41844 | 9622 ft | 283 kts | 63° |
| 2026-05-04 18:01 | 48.55343 | 1.44481 | 9411 ft | 283 kts | 63° |
| 2026-05-04 18:02 | 48.57258 | 1.49605 | 9057 ft | 282 kts | 50° |
| 2026-05-04 18:02 | 48.58744 | 1.51523 | 8900 ft | 283 kts | 31° |
| 2026-05-04 18:02 | 48.60507 | 1.52844 | 8715 ft | 283 kts | 26° |
| 2026-05-04 18:02 | 48.62278 | 1.54131 | 8508 ft | 281 kts | 27° |
| 2026-05-04 18:03 | 48.64032 | 1.55418 | 8292 ft | 280 kts | 27° |
| 2026-05-04 18:03 | 48.65779 | 1.56705 | 8107 ft | 279 kts | 27° |
| 2026-05-04 18:03 | 48.67520 | 1.57992 | 7954 ft | 278 kts | 27° |
| 2026-05-04 18:03 | 48.69255 | 1.59277 | 7804 ft | 278 kts | 27° |
| 2026-05-04 18:04 | 48.70989 | 1.60561 | 7640 ft | 277 kts | 27° |
| 2026-05-04 18:04 | 48.72693 | 1.61825 | 7450 ft | 275 kts | 27° |
| 2026-05-04 18:04 | 48.75762 | 1.65152 | 7053 ft | 273 kts | 51° |
| 2026-05-04 18:05 | 48.76880 | 1.67467 | 6825 ft | 272 kts | 55° |
| 2026-05-04 18:05 | 48.77978 | 1.69777 | 6583 ft | 269 kts | 54° |
| 2026-05-04 18:05 | 48.79079 | 1.72074 | 6337 ft | 269 kts | 54° |
| 2026-05-04 18:05 | 48.80176 | 1.74361 | 6122 ft | 268 kts | 54° |
| 2026-05-04 18:06 | 48.81986 | 1.78132 | 6009 ft | 259 kts | 54° |
| 2026-05-04 18:06 | 48.83347 | 1.80972 | 5955 ft | 245 kts | 54° |
| 2026-05-04 18:06 | 48.84334 | 1.83037 | 5783 ft | 241 kts | 54° |
| 2026-05-04 18:07 | 48.85324 | 1.85110 | 5631 ft | 243 kts | 54° |
| 2026-05-04 18:07 | 48.86313 | 1.87179 | 5473 ft | 241 kts | 54° |
| 2026-05-04 18:07 | 48.86965 | 1.88546 | 5376 ft | 241 kts | 54° |
| 2026-05-04 18:07 | 48.88279 | 1.91299 | 5145 ft | 239 kts | 54° |
| 2026-05-04 18:08 | 48.88923 | 1.92650 | 5042 ft | 238 kts | 54° |
| 2026-05-04 18:08 | 48.89875 | 1.94648 | 4931 ft | 228 kts | 54° |
| 2026-05-04 18:08 | 48.91054 | 1.97129 | 4797 ft | 216 kts | 54° |
| 2026-05-04 18:08 | 48.91649 | 1.98379 | 4725 ft | 213 kts | 54° |
| 2026-05-04 18:09 | 48.93335 | 2.01925 | 4587 ft | 207 kts | 54° |
| 2026-05-04 18:09 | 48.95001 | 2.05435 | 4380 ft | 205 kts | 54° |
| 2026-05-04 18:10 | 48.95836 | 2.07195 | 4282 ft | 205 kts | 54° |
| 2026-05-04 18:10 | 48.96670 | 2.08955 | 4201 ft | 205 kts | 54° |
| 2026-05-04 18:10 | 48.97503 | 2.10714 | 4150 ft | 205 kts | 54° |
| 2026-05-04 18:10 | 48.98607 | 2.13050 | 4082 ft | 205 kts | 54° |
| 2026-05-04 18:11 | 48.99169 | 2.14238 | 4040 ft | 205 kts | 54° |
| 2026-05-04 18:11 | 48.99877 | 2.16117 | 4005 ft | 205 kts | 68° |
| 2026-05-04 18:11 | 49.00250 | 2.18211 | 4005 ft | 206 kts | 79° |
| 2026-05-04 18:11 | 49.00424 | 2.20291 | 4005 ft | 193 kts | 84° |
| 2026-05-04 18:12 | 49.00529 | 2.22250 | 4003 ft | 185 kts | 84° |
| 2026-05-04 18:12 | 49.00635 | 2.24233 | 3897 ft | 188 kts | 84° |
| 2026-05-04 18:12 | 49.00739 | 2.26206 | 3648 ft | 186 kts | 84° |
| 2026-05-04 18:12 | 49.00842 | 2.28165 | 3404 ft | 185 kts | 84° |
| 2026-05-04 18:13 | 49.00946 | 2.30119 | 3149 ft | 185 kts | 84° |
| 2026-05-04 18:13 | 49.01049 | 2.32069 | 2899 ft | 185 kts | 84° |
| 2026-05-04 18:13 | 49.01255 | 2.35954 | 2400 ft | 183 kts | 84° |
| 2026-05-04 18:14 | 49.01352 | 2.37801 | 2159 ft | 169 kts | 84° |
| 2026-05-04 18:14 | 49.01442 | 2.39506 | 1930 ft | 154 kts | 84° |
| 2026-05-04 18:14 | 49.01523 | 2.41040 | 1727 ft | 140 kts | 84° |
| 2026-05-04 18:15 | 49.01589 | 2.42520 | 1450 ft | 140 kts | 86° |
| 2026-05-04 18:15 | 49.01907 | 2.48501 | 725 ft | 139 kts | 84° |
| 2026-05-04 18:16 | 49.01954 | 2.49478 | 629 ft | 140 kts | 84° |
| 2026-05-04 18:16 | 49.02063 | 2.51444 | 406 ft | 139 kts | 83° |
| 2026-05-04 18:16 | 49.02154 | 2.52842 | 361 ft | 115 kts | 83° |
| 2026-05-04 18:17 | 49.02229 | 2.54358 | 355 ft | 54 kts | 85° |
| 2026-05-04 18:17 | 49.02224 | 2.54891 | 354 ft | 47 kts | 104° |
| 2026-05-04 18:17 | 49.02173 | 2.55166 | 359 ft | 8 kts | 106° |
| 2026-05-04 18:18 | 49.02154 | 2.55270 | 355 ft | 12 kts | 106° |
| 2026-05-04 18:18 | 49.02128 | 2.55408 | 357 ft | 15 kts | 106° |
| 2026-05-04 18:18 | 49.02097 | 2.55574 | 358 ft | 17 kts | 104° |
| 2026-05-04 18:18 | 49.02080 | 2.55768 | 359 ft | 20 kts | 91° |
| 2026-05-04 18:19 | 49.02096 | 2.56220 | 356 ft | 23 kts | 104° |
| 2026-05-04 18:19 | 49.01973 | 2.56330 | 363 ft | 22 kts | 162° |
| 2026-05-04 18:19 | 49.01937 | 2.56535 | 357 ft | 23 kts | 84° |
| 2026-05-04 18:20 | 49.01952 | 2.56782 | 355 ft | 24 kts | 86° |
| 2026-05-04 18:20 | 49.01960 | 2.56955 | 359 ft | 25 kts | 85° |
| 2026-05-04 18:20 | 49.01981 | 2.57315 | 355 ft | 26 kts | 86° |
| 2026-05-04 18:20 | 49.01994 | 2.57583 | 358 ft | 25 kts | 85° |
| 2026-05-04 18:21 | 49.01983 | 2.57830 | 360 ft | 23 kts | 115° |
| 2026-05-04 18:21 | 49.01871 | 2.57979 | 361 ft | 21 kts | 162° |
| 2026-05-04 18:21 | 49.01729 | 2.58000 | 357 ft | 20 kts | 175° |
| 2026-05-04 18:21 | 49.01588 | 2.58016 | 359 ft | 20 kts | 176° |
| 2026-05-04 18:22 | 49.01445 | 2.58032 | 355 ft | 21 kts | 175° |
| 2026-05-04 18:22 | 49.01302 | 2.58054 | 355 ft | 20 kts | 175° |
| 2026-05-04 18:22 | 49.01169 | 2.58070 | 360 ft | 18 kts | 175° |
| 2026-05-04 18:22 | 49.01035 | 2.58085 | 358 ft | 20 kts | 175° |
| 2026-05-04 18:23 | 49.00895 | 2.58103 | 355 ft | 19 kts | 175° |
| 2026-05-04 18:23 | 49.00762 | 2.58124 | 354 ft | 20 kts | 174° |
| 2026-05-04 18:23 | 49.00667 | 2.58136 | 353 ft | 10 kts | 188° |
| 2026-05-04 18:23 | 49.00646 | 2.58106 | 355 ft | 1 kts | 263° |
| 2026-05-04 18:24 | 49.00653 | 2.58063 | 353 ft | 7 kts | 280° |
| 2026-05-04 18:24 | 49.00652 | 2.58014 | 353 ft | 0 kts | 269° |